Time;durP1;ratioP1;P1;durP2;ratioP2;P2;SDS_P1;SDS_P2;PMS_P1;PMS_P2;Temp;Humidity;BMP_temperature;BMP_pressure;BME280_temperature;BME280_humidity;BME280_pressure;Samples;Min_cycle;Max_cycle;Signal;HPM_P1;HPM_P2
2023/01/02 00:02:08;;;;;;;10.38;4.13;;;;;;;18.09;48.87;101295.94;4988538;28;97257;-71
2023/01/02 00:04:36;;;;;;;20.08;4.07;;;;;;;18.18;48.55;101278.50;4985053;28;100291;-72
2023/01/02 00:07:03;;;;;;;14.10;3.85;;;;;;;17.88;49.28;101282.00;4983567;28;101845;-72
2023/01/02 00:09:29;;;;;;;8.05;3.28;;;;;;;17.99;48.94;101280.50;4986488;28;96827;-73
2023/01/02 00:11:56;;;;;;;12.18;3.80;;;;;;;17.98;49.27;101276.13;4987119;28;97372;-71
2023/01/02 00:14:22;;;;;;;12.65;3.50;;;;;;;17.86;49.58;101270.53;4984966;28;98886;-72
2023/01/02 00:16:48;;;;;;;11.75;3.58;;;;;;;18.00;49.11;101258.16;4987975;28;98789;-72
2023/01/02 00:19:15;;;;;;;11.57;3.95;;;;;;;17.85;49.76;101259.94;4991936;28;97262;-71
2023/01/02 00:21:43;;;;;;;18.15;3.83;;;;;;;17.92;49.63;101242.56;4981047;28;97094;-71
2023/01/02 00:24:10;;;;;;;14.95;4.07;;;;;;;18.05;49.19;101243.56;4991765;28;98567;-71
2023/01/02 00:26:36;;;;;;;11.48;3.95;;;;;;;17.85;49.58;101238.56;4987578;28;100304;-71
2023/01/02 00:29:02;;;;;;;10.95;4.40;;;;;;;17.89;49.49;101240.94;4984316;28;98874;-71
2023/01/02 00:31:29;;;;;;;19.48;4.70;;;;;;;17.73;50.10;101249.94;4988566;28;98882;-71
2023/01/02 00:33:55;;;;;;;13.35;4.32;;;;;;;17.71;50.28;101249.19;4987534;28;97900;-70
2023/01/02 00:36:22;;;;;;;12.65;4.25;;;;;;;17.80;49.79;101249.50;4987696;28;100647;-71
2023/01/02 00:38:50;;;;;;;15.35;4.20;;;;;;;17.66;50.22;101246.75;4980542;28;97317;-71
2023/01/02 00:41:16;;;;;;;11.40;3.97;;;;;;;17.68;50.23;101247.53;4983349;28;99071;-72
2023/01/02 00:43:43;;;;;;;12.70;4.38;;;;;;;17.70;50.10;101244.78;4984745;28;102751;-72
2023/01/02 00:46:10;;;;;;;9.32;3.75;;;;;;;17.46;50.72;101246.97;4982066;28;99035;-72
2023/01/02 00:48:36;;;;;;;11.70;3.97;;;;;;;17.66;50.34;101248.56;4988118;28;97074;-72
2023/01/02 00:51:03;;;;;;;12.18;3.83;;;;;;;17.31;50.88;101239.84;4985165;28;96882;-71
2023/01/02 00:53:29;;;;;;;13.25;3.70;;;;;;;17.60;50.34;101244.38;4984673;28;98296;-72
2023/01/02 00:55:57;;;;;;;9.43;3.58;;;;;;;17.72;50.06;101245.56;4986130;28;98187;-70
2023/01/02 00:58:24;;;;;;;16.27;3.72;;;;;;;17.76;50.04;101234.59;4991677;28;96821;-72
2023/01/02 01:00:50;;;;;;;12.30;4.15;;;;;;;17.47;50.81;101238.88;4985026;28;96990;-71
2023/01/02 01:03:17;;;;;;;13.40;3.67;;;;;;;17.65;50.29;101237.03;4977976;28;98399;-70
2023/01/02 01:05:44;;;;;;;9.15;3.47;;;;;;;17.62;50.57;101237.19;4988525;28;99071;-71
2023/01/02 01:08:10;;;;;;;11.63;4.30;;;;;;;17.94;49.58;101229.97;4984374;28;100136;-71
2023/01/02 01:10:37;;;;;;;10.45;3.63;;;;;;;17.86;49.90;101234.91;4988698;28;96889;-71
2023/01/02 01:13:05;;;;;;;8.55;4.03;;;;;;;17.65;50.35;101237.03;4979347;28;99176;-70
2023/01/02 01:15:32;;;;;;;11.02;3.63;;;;;;;17.85;49.80;101234.03;4990418;28;103229;-71
2023/01/02 01:17:58;;;;;;;9.02;3.20;;;;;;;17.79;49.80;101220.16;4995822;28;96757;-70
2023/01/02 01:20:25;;;;;;;15.70;3.95;;;;;;;17.73;50.29;101218.72;4988535;28;96899;-70
2023/01/02 01:22:51;;;;;;;11.18;3.30;;;;;;;17.62;50.29;101215.81;4984844;28;99434;-70
2023/01/02 01:25:18;;;;;;;11.05;3.42;;;;;;;17.84;49.95;101210.97;4988163;28;99451;-70
2023/01/02 01:27:45;;;;;;;13.35;4.05;;;;;;;17.67;50.08;101203.03;4987701;28;97932;-70
2023/01/02 01:30:13;;;;;;;11.05;3.45;;;;;;;17.72;50.34;101211.66;4988898;28;100072;-72
2023/01/02 01:32:39;;;;;;;12.52;3.53;;;;;;;17.56;50.45;101194.75;4991053;28;101490;-72
2023/01/02 01:35:07;;;;;;;13.90;3.80;;;;;;;17.69;50.27;101198.47;4985747;28;98903;-72
2023/01/02 01:37:33;;;;;;;10.65;3.33;;;;;;;17.70;49.97;101192.19;4980257;28;97564;-71
2023/01/02 01:40:00;;;;;;;16.08;3.28;;;;;;;17.48;50.49;101192.50;4983841;28;96931;-71
2023/01/02 01:42:31;;;;;;;14.45;3.47;;;;;;;17.67;50.18;101187.00;4987669;28;97818;-73
2023/01/02 01:44:58;;;;;;;11.40;3.10;;;;;;;17.68;50.06;101193.22;4985850;28;99283;-71
2023/01/02 01:47:36;;;;;;;9.82;3.35;;;;;;;17.50;50.42;101189.75;4989449;28;97691;-72
2023/01/02 01:50:07;;;;;;;13.38;3.80;;;;;;;17.49;50.50;101188.91;4983363;28;97126;-72
2023/01/02 01:52:36;;;;;;;11.50;3.45;;;;;;;17.57;50.33;101183.13;4979316;28;99213;-72
2023/01/02 01:55:08;;;;;;;16.08;4.00;;;;;;;17.36;50.69;101173.66;4985531;28;98882;-70
2023/01/02 01:57:39;;;;;;;13.23;3.40;;;;;;;17.56;50.28;101167.16;4986252;28;96909;-71
2023/01/02 02:00:07;;;;;;;12.60;3.33;;;;;;;17.68;49.97;101161.13;4990527;28;96859;-71
2023/01/02 02:02:36;;;;;;;10.23;3.63;;;;;;;17.69;49.79;101166.41;4989304;28;99258;-70
2023/01/02 02:05:04;;;;;;;9.15;3.33;;;;;;;17.61;50.43;101165.97;4983327;28;98632;-71
2023/01/02 02:07:34;;;;;;;10.52;3.53;;;;;;;17.69;49.95;101158.38;4988229;28;96961;-71
2023/01/02 02:10:06;;;;;;;10.00;3.35;;;;;;;17.60;50.12;101153.53;4989104;28;96937;-71
2023/01/02 02:12:33;;;;;;;13.95;3.17;;;;;;;17.69;49.96;101152.19;4990160;28;98944;-70
2023/01/02 02:15:00;;;;;;;7.55;3.17;;;;;;;17.65;49.99;101143.50;4987094;28;99468;-72
2023/01/02 02:17:40;;;;;;;11.88;3.45;;;;;;;17.71;49.75;101143.13;4992435;28;97654;-71
2023/01/02 02:20:17;;;;;;;10.45;3.33;;;;;;;17.48;50.47;101130.19;4990081;28;96895;-70
2023/01/02 02:23:10;;;;;;;11.73;3.55;;;;;;;17.66;49.90;101125.63;4992443;28;98903;-70
2023/01/02 02:26:23;;;;;;;5.88;3.10;;;;;;;17.69;49.89;101118.31;4995107;28;99698;-71
2023/01/02 02:29:09;;;;;;;8.88;2.63;;;;;;;17.45;50.40;101111.69;4945277;28;97787;-71
2023/01/02 02:31:47;;;;;;;8.63;3.40;;;;;;;17.58;50.05;101098.47;4987215;28;98452;-71
2023/01/02 02:34:21;;;;;;;8.38;3.47;;;;;;;17.62;49.96;101094.69;4986043;28;99359;-71
2023/01/02 02:36:55;;;;;;;13.00;3.53;;;;;;;17.64;49.78;101096.34;4985950;28;98915;-71
2023/01/02 02:39:30;;;;;;;10.20;3.80;;;;;;;17.48;50.08;101092.81;4987817;28;96961;-72
2023/01/02 02:42:02;;;;;;;7.30;2.92;;;;;;;17.42;50.26;101090.50;4987422;28;97000;-71
2023/01/02 02:44:41;;;;;;;10.13;2.92;;;;;;;17.57;49.84;101083.41;4982086;28;99574;-70
2023/01/02 02:47:19;;;;;;;10.18;3.75;;;;;;;17.59;49.89;101082.31;4988008;28;98946;-71
2023/01/02 02:49:54;;;;;;;9.88;3.17;;;;;;;17.58;49.98;101088.66;4982963;28;96818;-70
2023/01/02 02:52:26;;;;;;;11.85;3.30;;;;;;;17.48;50.25;101095.47;4993913;28;98739;-71
2023/01/02 02:55:00;;;;;;;11.40;3.22;;;;;;;17.53;50.00;101088.91;4988494;28;99078;-70
2023/01/02 02:57:26;;;;;;;9.77;3.20;;;;;;;17.66;49.73;101090.88;4987168;28;99379;-71
2023/01/02 02:59:53;;;;;;;13.50;3.75;;;;;;;17.69;49.64;101083.56;4989655;28;98381;-69
2023/01/02 03:02:21;;;;;;;13.82;3.50;;;;;;;17.59;49.51;101084.16;4984477;28;98989;-71
2023/01/02 03:04:52;;;;;;;12.35;3.33;;;;;;;17.48;49.85;101069.63;4980950;28;99287;-70
2023/01/02 03:07:25;;;;;;;14.02;4.22;;;;;;;17.45;49.85;101074.28;4992884;28;99548;-70
2023/01/02 03:10:02;;;;;;;11.90;3.47;;;;;;;17.39;50.10;101075.50;4982596;28;97093;-70
2023/01/02 03:12:37;;;;;;;6.63;3.22;;;;;;;17.57;49.51;101067.34;4986126;28;96812;-71
2023/01/02 03:15:14;;;;;;;12.23;4.47;;;;;;;17.61;49.29;101050.22;4987486;28;99634;-71
2023/01/02 03:17:54;;;;;;;9.88;3.78;;;;;;;17.43;49.64;101054.81;4988020;28;99609;-70
2023/01/02 03:20:25;;;;;;;10.15;3.40;;;;;;;17.66;48.92;101059.66;4989129;28;97463;-71
2023/01/02 03:22:58;;;;;;;12.48;4.15;;;;;;;17.57;48.81;101060.22;4986568;28;97997;-70
2023/01/02 03:25:24;;;;;;;11.25;3.90;;;;;;;17.57;48.93;101054.88;4980914;28;99783;-71
2023/01/02 03:27:53;;;;;;;10.55;3.33;;;;;;;17.57;48.84;101057.53;4986222;28;98802;-71
2023/01/02 03:30:21;;;;;;;7.90;3.60;;;;;;;17.45;49.02;101059.13;4984469;28;98798;-71
2023/01/02 03:32:52;;;;;;;8.77;3.50;;;;;;;17.49;48.65;101060.66;4987273;28;97229;-71
2023/01/02 03:35:24;;;;;;;14.57;4.32;;;;;;;17.44;48.71;101060.06;4987159;28;98935;-72
2023/01/02 03:37:55;;;;;;;9.02;3.55;;;;;;;17.51;48.91;101047.22;4984122;28;98822;-70
2023/01/02 03:40:25;;;;;;;13.43;3.60;;;;;;;17.54;48.35;101047.00;4986797;28;97102;-71
2023/01/02 03:42:58;;;;;;;9.27;3.80;;;;;;;17.76;47.91;101046.63;4988566;28;97047;-72
2023/01/02 03:45:29;;;;;;;13.38;3.47;;;;;;;17.54;48.33;101041.66;4985673;28;99799;-70
2023/01/02 03:48:03;;;;;;;11.38;3.55;;;;;;;17.70;47.86;101047.00;4987240;28;98785;-72
2023/01/02 03:50:33;;;;;;;7.70;3.60;;;;;;;17.76;47.84;101047.50;4991387;28;99466;-69
2023/01/02 03:53:01;;;;;;;9.27;3.35;;;;;;;17.76;47.62;101047.50;4987404;28;97825;-69
2023/01/02 03:55:33;;;;;;;14.38;3.95;;;;;;;17.63;47.78;101041.16;4987483;28;101426;-69
2023/01/02 03:58:14;;;;;;;10.23;3.10;;;;;;;17.70;47.61;101037.19;4987388;28;99286;-68
2023/01/02 04:00:46;;;;;;;8.98;3.63;;;;;;;17.58;47.95;101040.56;4980855;28;96813;-68
2023/01/02 04:03:17;;;;;;;9.13;3.40;;;;;;;17.57;47.80;101041.50;4984560;28;97851;-69
2023/01/02 04:05:49;;;;;;;7.25;3.53;;;;;;;17.60;47.86;101029.75;4987365;28;98979;-69
2023/01/02 04:08:21;;;;;;;9.75;3.85;;;;;;;17.70;47.60;101036.31;4983982;28;99241;-69
2023/01/02 04:10:51;;;;;;;8.60;3.30;;;;;;;17.61;47.81;101024.34;4983514;28;96771;-69
2023/01/02 04:13:21;;;;;;;12.38;3.65;;;;;;;17.63;47.71;101030.47;4987114;28;96819;-69
2023/01/02 04:15:50;;;;;;;10.40;3.47;;;;;;;17.43;48.03;101028.09;4988723;28;99019;-69
2023/01/02 04:18:22;;;;;;;10.75;3.55;;;;;;;17.47;47.96;101024.28;4991108;28;99096;-69
2023/01/02 04:20:53;;;;;;;6.68;3.45;;;;;;;17.66;47.40;101030.28;4988232;28;96811;-69
2023/01/02 04:23:23;;;;;;;12.82;4.13;;;;;;;17.71;47.30;101032.69;4986747;28;96847;-69
2023/01/02 04:25:54;;;;;;;10.02;3.90;;;;;;;17.79;47.10;101030.38;4985201;28;97684;-70
2023/01/02 04:28:24;;;;;;;9.00;3.47;;;;;;;17.91;46.83;101037.69;4992270;28;98811;-70
2023/01/02 04:30:57;;;;;;;6.85;3.50;;;;;;;17.91;46.84;101030.53;4988262;28;97589;-69
2023/01/02 04:33:26;;;;;;;9.57;3.67;;;;;;;17.65;47.33;101033.94;4988848;28;96900;-68
2023/01/02 04:35:52;;;;;;;12.48;3.78;;;;;;;17.65;47.37;101014.34;4984408;28;99451;-69
2023/01/02 04:38:19;;;;;;;7.85;4.15;;;;;;;17.75;47.23;101021.72;4983555;28;98800;-68
2023/01/02 04:40:45;;;;;;;7.53;3.67;;;;;;;17.73;47.06;101015.59;4987873;28;96802;-68
2023/01/02 04:43:17;;;;;;;7.88;3.72;;;;;;;17.78;46.98;101023.34;4986429;28;96840;-68
2023/01/02 04:45:44;;;;;;;9.75;3.58;;;;;;;17.76;47.14;101022.56;4987048;28;101216;-68
2023/01/02 04:48:10;;;;;;;5.50;3.60;;;;;;;17.86;46.54;101021.03;4987160;28;98827;-68
2023/01/02 04:50:38;;;;;;;6.25;3.65;;;;;;;17.71;46.81;101016.66;4987401;28;96845;-68
2023/01/02 04:53:04;;;;;;;7.35;3.58;;;;;;;17.84;46.39;101025.66;4989618;28;97201;-69
2023/01/02 04:55:31;;;;;;;13.25;4.22;;;;;;;17.84;46.51;101022.97;4988777;28;97906;-69
2023/01/02 04:57:57;;;;;;;11.35;3.85;;;;;;;18.02;46.25;101031.66;4986502;28;99870;-69
2023/01/02 05:00:24;;;;;;;9.30;4.03;;;;;;;18.06;46.10;101026.03;4983831;28;96924;-69
2023/01/02 05:02:50;;;;;;;11.85;3.80;;;;;;;18.03;45.97;101028.03;4986926;28;97201;-70
2023/01/02 05:05:16;;;;;;;6.00;3.10;;;;;;;18.06;45.63;101025.16;4983838;28;99155;-68
2023/01/02 05:07:44;;;;;;;7.80;3.53;;;;;;;18.08;45.88;101023.25;4986459;28;98913;-68
2023/01/02 05:10:10;;;;;;;7.22;3.83;;;;;;;18.16;45.98;101007.59;4983966;28;96944;-68
2023/01/02 05:12:38;;;;;;;8.90;3.95;;;;;;;18.03;46.43;101020.03;4985763;28;96824;-68
2023/01/02 05:15:08;;;;;;;9.95;4.13;;;;;;;18.07;46.39;101019.72;4981948;28;99010;-69
2023/01/02 05:17:35;;;;;;;5.10;3.00;;;;;;;18.18;46.16;101019.91;4980312;28;98832;-69
2023/01/02 05:20:01;;;;;;;7.80;3.53;;;;;;;18.20;45.88;101034.06;4989774;28;97897;-70
2023/01/02 05:25:13;;;;;;;8.60;3.47;;;;;;;18.06;45.70;101018.00;4976260;28;97155;-69
2023/01/02 05:27:39;;;;;;;7.07;3.50;;;;;;;18.12;45.69;101019.44;4985706;28;98788;-70
2023/01/02 05:30:07;;;;;;;8.18;3.97;;;;;;;18.04;45.61;101021.75;4985108;28;96843;-69
2023/01/02 05:32:34;;;;;;;6.22;3.85;;;;;;;18.03;45.93;101017.34;4987214;28;97531;-69
2023/01/02 05:35:00;;;;;;;6.38;3.65;;;;;;;18.10;45.43;101014.22;4985746;28;99229;-69
2023/01/02 05:37:26;;;;;;;7.93;3.70;;;;;;;17.99;45.71;101014.00;4987289;28;98887;-69
2023/01/02 05:39:53;;;;;;;7.80;3.20;;;;;;;18.03;45.56;101015.53;4986817;28;96839;-69
2023/01/02 05:42:20;;;;;;;5.40;3.30;;;;;;;18.04;45.44;101008.38;4994841;28;96982;-69
2023/01/02 05:44:48;;;;;;;9.35;3.42;;;;;;;18.15;45.40;101001.41;4990537;28;98474;-69
2023/01/02 05:47:14;;;;;;;7.22;3.47;;;;;;;18.14;45.23;101005.03;4988244;28;99328;-70
2023/01/02 05:49:40;;;;;;;6.28;3.45;;;;;;;18.18;44.95;101008.38;4989475;28;98450;-69
2023/01/02 05:52:07;;;;;;;6.30;3.40;;;;;;;18.15;45.33;101006.75;4987938;28;96865;-69
2023/01/02 05:54:33;;;;;;;4.90;2.88;;;;;;;18.07;45.12;101000.16;4991391;28;99875;-69
2023/01/02 05:57:00;;;;;;;8.35;3.15;;;;;;;18.28;44.93;101010.38;4988457;28;100631;-69
2023/01/02 05:59:28;;;;;;;9.02;3.65;;;;;;;18.16;45.15;101004.94;4990197;28;96916;-70
2023/01/02 06:01:55;;;;;;;4.85;3.20;;;;;;;18.17;44.77;101003.97;4994381;28;97766;-72
2023/01/02 06:04:21;;;;;;;7.22;3.78;;;;;;;18.04;45.16;101003.03;4987309;28;98914;-72
2023/01/02 06:06:48;;;;;;;10.18;3.17;;;;;;;18.17;44.77;101003.97;4993430;28;98851;-71
2023/01/02 06:09:16;;;;;;;7.25;2.92;;;;;;;18.23;44.53;100998.25;4981804;28;99263;-71
2023/01/02 06:11:43;;;;;;;7.82;3.35;;;;;;;18.28;44.56;101009.50;4988546;28;97453;-70
2023/01/02 06:14:10;;;;;;;6.28;3.33;;;;;;;18.00;45.11;101010.38;4982777;28;98676;-71
2023/01/02 06:16:38;;;;;;;5.15;2.75;;;;;;;18.09;44.74;101003.59;4995238;28;99068;-71
2023/01/02 06:19:06;;;;;;;5.10;3.10;;;;;;;18.04;44.92;101006.56;4987680;28;98584;-71
2023/01/02 06:21:33;;;;;;;8.43;3.03;;;;;;;18.17;44.69;100998.63;4994802;28;96846;-71
2023/01/02 06:23:59;;;;;;;6.50;2.95;;;;;;;18.16;44.51;101005.78;4986306;28;97952;-71
2023/01/02 06:26:28;;;;;;;6.97;3.58;;;;;;;18.24;44.41;101006.19;4984414;28;99099;-71
2023/01/02 06:28:56;;;;;;;12.07;3.47;;;;;;;18.36;44.26;101004.53;4991243;28;98718;-70
2023/01/02 06:31:26;;;;;;;7.90;3.40;;;;;;;18.31;43.93;100993.28;4990106;28;97522;-72
2023/01/02 06:33:58;;;;;;;7.30;3.47;;;;;;;18.45;43.85;100997.72;4984316;28;98454;-71
2023/01/02 06:36:26;;;;;;;5.25;2.72;;;;;;;18.45;44.04;101001.25;4991164;28;98078;-71
2023/01/02 06:38:52;;;;;;;5.28;2.90;;;;;;;18.45;43.71;101003.06;4987705;28;97675;-71
2023/01/02 06:41:19;;;;;;;5.20;2.70;;;;;;;18.39;43.75;101004.31;4991924;28;96867;-72
2023/01/02 06:43:47;;;;;;;6.78;3.20;;;;;;;18.53;43.81;101001.63;4982929;28;99175;-71
2023/01/02 06:46:14;;;;;;;7.93;2.70;;;;;;;18.54;43.52;101008.69;4992104;28;99528;-71
2023/01/02 06:48:41;;;;;;;8.07;2.88;;;;;;;18.52;43.34;101005.25;4991870;28;96997;-72
2023/01/02 06:51:11;;;;;;;7.50;3.28;;;;;;;18.59;43.40;101011.97;4988437;28;97301;-70
2023/01/02 06:53:39;;;;;;;6.72;2.72;;;;;;;18.53;43.40;101016.81;4991163;28;99499;-71
2023/01/02 06:56:07;;;;;;;6.32;3.22;;;;;;;18.55;43.39;101017.59;4985386;28;97670;-72
2023/01/02 06:58:35;;;;;;;5.93;2.63;;;;;;;18.45;43.38;101017.31;4989654;28;98555;-72
2023/01/02 07:01:03;;;;;;;3.72;2.80;;;;;;;18.38;43.85;101018.66;4987868;28;97562;-71
2023/01/02 07:03:30;;;;;;;4.93;2.58;;;;;;;18.32;43.75;101019.91;4994007;28;99548;-71
2023/01/02 07:05:59;;;;;;;3.72;2.20;;;;;;;18.47;43.50;101007.38;4990195;28;98920;-71
2023/01/02 07:08:27;;;;;;;5.30;2.47;;;;;;;18.46;43.67;101016.34;4981372;28;96986;-71
2023/01/02 07:10:53;;;;;;;10.02;3.53;;;;;;;18.42;43.38;101009.50;4982943;28;97345;-72
2023/01/02 07:13:20;;;;;;;6.97;3.20;;;;;;;18.44;43.61;101022.78;4992427;28;98848;-73
2023/01/02 07:15:46;;;;;;;7.97;2.90;;;;;;;18.59;43.20;101024.47;4984661;28;98786;-72
2023/01/02 07:18:13;;;;;;;7.13;2.38;;;;;;;18.46;43.39;101035.09;4988227;28;97184;-73
2023/01/02 07:20:39;;;;;;;5.38;2.63;;;;;;;18.26;43.71;101032.81;4990385;28;96887;-72
2023/01/02 07:23:05;;;;;;;5.07;2.58;;;;;;;18.37;43.57;101037.50;4989279;28;99068;-71
2023/01/02 07:25:33;;;;;;;8.45;2.88;;;;;;;18.53;43.37;101044.44;4985283;28;98780;-71
2023/01/02 07:27:59;;;;;;;7.78;2.80;;;;;;;18.48;43.30;101035.00;4987107;28;96908;-72
2023/01/02 07:30:26;;;;;;;7.43;2.53;;;;;;;18.42;43.54;101030.91;4986343;28;97007;-73
2023/01/02 07:32:53;;;;;;;5.53;2.75;;;;;;;18.50;43.54;101022.38;4990057;28;98907;-72
2023/01/02 07:35:19;;;;;;;6.43;2.78;;;;;;;18.56;43.37;101044.28;4989924;28;100508;-72
2023/01/02 07:37:45;;;;;;;8.02;2.90;;;;;;;18.67;42.88;101035.56;4986060;28;99016;-72
2023/01/02 07:40:12;;;;;;;11.57;2.83;;;;;;;18.52;43.26;101039.19;4978078;28;97273;-71
2023/01/02 07:42:40;;;;;;;9.52;2.72;;;;;;;18.56;43.30;101038.94;4987424;28;99527;-71
2023/01/02 07:45:08;;;;;;;4.95;2.72;;;;;;;18.61;43.44;101042.19;4984812;28;102190;-72
2023/01/02 07:47:35;;;;;;;5.82;2.83;;;;;;;18.70;43.03;101038.06;4983303;28;98016;-72
2023/01/02 07:50:01;;;;;;;8.55;3.80;;;;;;;18.46;43.72;101043.09;4981111;28;96925;-71
2023/01/02 07:52:28;;;;;;;6.00;2.50;;;;;;;18.46;43.41;101051.13;4987270;28;98940;-72
2023/01/02 07:54:54;;;;;;;8.88;2.80;;;;;;;18.49;43.53;101048.28;4988002;28;99238;-71
2023/01/02 07:57:20;;;;;;;5.80;2.30;;;;;;;18.68;43.15;101043.50;4986151;28;96856;-71
2023/01/02 07:59:49;;;;;;;8.27;2.75;;;;;;;18.68;43.01;101048.84;4986015;28;96949;-72
2023/01/02 08:02:17;;;;;;;6.03;2.42;;;;;;;18.77;42.84;101057.25;4983967;28;99240;-72
2023/01/02 08:04:44;;;;;;;9.30;2.47;;;;;;;18.77;42.42;101051.91;4983634;28;99205;-71
2023/01/02 08:07:10;;;;;;;4.80;2.78;;;;;;;18.72;42.60;101054.84;4986990;28;97329;-72
2023/01/02 08:09:37;;;;;;;8.48;3.20;;;;;;;18.90;42.17;101055.50;4984319;28;97149;-72
2023/01/02 08:12:04;;;;;;;10.55;2.22;;;;;;;18.85;42.33;101063.81;4987429;28;98938;-72
2023/01/02 08:14:30;;;;;;;7.43;2.30;;;;;;;18.78;42.33;101057.13;4986933;28;99399;-72
2023/01/02 08:16:58;;;;;;;9.35;2.78;;;;;;;18.77;42.17;101058.13;4986700;28;96971;-74
2023/01/02 08:19:24;;;;;;;9.60;4.55;;;;;;;18.69;42.29;101047.91;4991178;28;97064;-73
2023/01/02 08:21:51;;;;;;;9.23;2.17;;;;;;;18.66;42.36;101049.91;4990506;28;101840;-73
2023/01/02 08:24:17;;;;;;;4.47;2.60;;;;;;;18.83;42.23;101052.38;4983237;28;99019;-71
2023/01/02 08:26:43;;;;;;;6.90;2.60;;;;;;;18.74;41.96;101057.44;4986255;28;97750;-72
2023/01/02 08:29:10;;;;;;;7.90;2.70;;;;;;;18.80;41.75;101063.25;4989332;28;97370;-72
2023/01/02 08:31:36;;;;;;;6.32;2.00;;;;;;;18.57;42.31;101067.44;4985043;28;100071;-74
2023/01/02 08:34:04;;;;;;;9.25;3.45;;;;;;;18.74;42.11;101058.31;4984169;28;98876;-71
2023/01/02 08:36:31;;;;;;;7.28;2.35;;;;;;;18.86;41.84;101062.00;4988538;28;97118;-72
2023/01/02 08:38:57;;;;;;;8.43;2.10;;;;;;;18.94;41.68;101059.69;4982827;28;96851;-72
2023/01/02 08:41:31;;;;;;;6.13;2.97;;;;;;;18.99;41.46;101052.22;4980257;28;99220;-71
2023/01/02 08:43:57;;;;;;;8.13;2.50;;;;;;;18.92;41.47;101058.91;4986312;28;98854;-72
2023/01/02 08:46:24;;;;;;;8.48;2.47;;;;;;;18.94;41.40;101059.69;4989056;28;97096;-71
2023/01/02 08:48:50;;;;;;;4.65;2.28;;;;;;;18.95;41.64;101056.91;4989312;28;97133;-74
2023/01/02 08:51:18;;;;;;;4.45;2.55;;;;;;;19.23;41.00;101060.47;4986799;28;98258;-72
2023/01/02 08:53:44;;;;;;;4.65;2.50;;;;;;;19.24;40.70;101060.34;4985391;28;99261;-72
2023/01/02 08:56:23;;;;;;;10.25;2.55;;;;;;;19.13;40.66;101059.34;4989263;28;97572;-74
2023/01/02 08:58:51;;;;;;;5.72;2.50;;;;;;;19.15;40.80;101057.44;4981800;28;98686;-71
2023/01/02 09:01:17;;;;;;;8.18;3.10;;;;;;;19.25;40.71;101062.06;4985055;28;101610;-69
2023/01/02 09:03:44;;;;;;;11.63;2.05;;;;;;;19.04;40.97;101064.34;4975245;28;98813;-69
2023/01/02 09:06:10;;;;;;;4.00;1.75;;;;;;;19.25;40.81;101062.06;4979520;28;98967;-69
2023/01/02 09:08:38;;;;;;;9.02;2.67;;;;;;;19.24;40.70;101065.69;4982191;28;97228;-70
2023/01/02 09:11:10;;;;;;;6.93;2.60;;;;;;;19.10;40.97;101071.97;4987998;28;99386;-70
2023/01/02 09:13:37;;;;;;;9.32;2.60;;;;;;;19.26;40.50;101066.47;4979643;28;99102;-68
2023/01/02 09:16:04;;;;;;;6.85;3.25;;;;;;;19.26;40.25;101065.59;4981556;28;96971;-69
2023/01/02 09:18:30;;;;;;;5.93;2.53;;;;;;;19.26;40.26;101063.78;4991964;28;97080;-70
2023/01/02 09:20:56;;;;;;;5.53;2.38;;;;;;;19.41;40.31;101069.94;4981690;28;98157;-70
2023/01/02 09:23:23;;;;;;;5.93;2.65;;;;;;;19.26;40.43;101070.97;4980166;28;99221;-69
2023/01/02 09:25:50;;;;;;;8.63;2.28;;;;;;;19.56;39.74;101073.47;4982222;28;97482;-69
2023/01/02 09:28:17;;;;;;;8.02;2.58;;;;;;;19.53;39.74;101069.16;4985091;28;96917;-70
2023/01/02 09:30:43;;;;;;;12.57;2.60;;;;;;;19.53;39.56;101074.50;4986860;28;99911;-69
2023/01/02 09:33:10;;;;;;;5.13;2.28;;;;;;;19.41;39.97;101086.03;4984374;28;99931;-69
2023/01/02 09:35:36;;;;;;;3.97;2.00;;;;;;;19.36;39.93;101072.09;4979221;28;97597;-69
2023/01/02 09:38:03;;;;;;;7.25;2.25;;;;;;;19.43;39.86;101068.00;4981413;28;97726;-69
2023/01/02 09:40:31;;;;;;;10.98;2.72;;;;;;;19.31;39.88;101068.81;4982219;28;99910;-70
2023/01/02 09:43:00;;;;;;;9.93;2.10;;;;;;;19.43;39.69;101068.00;4986047;28;98985;-70
2023/01/02 09:45:26;;;;;;;6.70;2.15;;;;;;;19.40;39.56;101058.38;4980061;28;97084;-69
2023/01/02 09:47:55;;;;;;;7.55;2.63;;;;;;;19.67;39.46;101062.84;4982710;28;97109;-70
2023/01/02 09:50:26;;;;;;;6.32;2.58;;;;;;;19.74;39.26;101056.97;4983269;28;99887;-69
2023/01/02 09:52:55;;;;;;;7.80;2.58;;;;;;;19.62;39.34;101048.91;4982444;28;100335;-68
2023/01/02 09:55:32;;;;;;;4.70;2.35;;;;;;;19.61;39.17;101049.88;4985095;28;97179;-70
2023/01/02 09:58:09;;;;;;;6.28;2.03;;;;;;;19.51;39.06;101036.22;4980822;28;97392;-70
2023/01/02 10:00:37;;;;;;;;;;;;;;;19.49;39.16;101030.97;4977681;28;98901;-71
2023/01/02 10:03:14;;;;;;;6.55;2.13;;;;;;;19.73;38.85;101032.94;4977476;28;100947;-70
2023/01/02 10:06:04;;;;;;;7.43;2.15;;;;;;;19.71;38.66;101037.53;4982572;28;96948;-71
2023/01/02 10:08:39;;;;;;;6.45;2.50;;;;;;;19.76;38.87;101036.25;4985757;28;97520;-70
2023/01/02 10:11:24;;;;;;;7.38;2.47;;;;;;;19.75;38.52;101039.06;4979091;28;100332;-71
2023/01/02 10:13:56;;;;;;;10.77;2.45;;;;;;;19.77;38.51;101023.72;4975273;28;99212;-70
2023/01/02 10:16:27;;;;;;;5.50;2.40;;;;;;;19.80;38.32;101028.88;4987529;28;96961;-70
2023/01/02 10:18:56;;;;;;;6.55;1.92;;;;;;;19.82;38.58;101016.22;4982103;28;97012;-71
2023/01/02 10:21:26;;;;;;;6.90;2.33;;;;;;;19.77;38.51;101002.25;4987394;28;99058;-71
2023/01/02 10:24:00;;;;;;;10.10;2.10;;;;;;;19.89;38.15;101015.66;4986625;28;98831;-70
2023/01/02 10:26:32;;;;;;;9.73;2.10;;;;;;;19.97;38.41;101009.78;4987065;28;96988;-72
2023/01/02 10:29:09;;;;;;;9.63;1.90;;;;;;;20.13;37.92;101004.19;4983485;28;97881;-71
2023/01/02 10:31:41;;;;;;;8.15;1.85;;;;;;;19.88;38.39;101015.78;4986820;28;99223;-69
2023/01/02 10:34:16;;;;;;;5.38;2.10;;;;;;;19.72;38.46;100999.03;4979523;28;98881;-70
2023/01/02 10:36:44;;;;;;;7.72;2.58;;;;;;;19.70;38.43;101009.00;4991461;28;97298;-70
2023/01/02 10:39:15;;;;;;;4.78;2.03;;;;;;;19.87;38.35;101004.22;4988098;28;101996;-69
2023/01/02 10:41:46;;;;;;;8.30;1.60;;;;;;;19.86;38.09;101001.63;4981458;28;99524;-70
2023/01/02 10:44:22;;;;;;;4.40;2.05;;;;;;;19.82;38.37;101002.81;4981009;28;99004;-70
2023/01/02 10:46:48;;;;;;;7.50;1.88;;;;;;;19.98;38.08;101000.75;4989035;28;101601;-71
2023/01/02 10:49:15;;;;;;;6.75;1.92;;;;;;;19.80;38.42;101008.28;4985013;28;96933;-69
2023/01/02 10:51:48;;;;;;;4.47;2.47;;;;;;;19.61;38.83;101009.66;4985286;28;97846;-71
2023/01/02 10:54:14;;;;;;;6.68;1.90;;;;;;;19.73;38.45;101012.34;4989129;28;98674;-70
2023/01/02 10:56:45;;;;;;;4.85;1.73;;;;;;;19.55;38.87;101002.91;4986658;28;97811;-70
2023/01/02 10:59:20;;;;;;;5.28;1.83;;;;;;;19.56;38.74;101001.91;4982226;28;99540;-70
2023/01/02 11:01:53;;;;;;;8.27;2.20;;;;;;;19.66;38.59;101008.38;4988516;28;99512;-69
2023/01/02 11:04:23;;;;;;;8.10;2.13;;;;;;;19.81;38.35;101009.16;4982215;28;99154;-71
2023/01/02 11:06:57;;;;;;;4.78;1.75;;;;;;;19.85;38.42;101008.81;4991554;28;96903;-70
2023/01/02 11:09:25;;;;;;;5.82;2.15;;;;;;;19.87;38.45;101014.06;4982156;28;96809;-70
2023/01/02 11:11:53;;;;;;;8.68;1.75;;;;;;;19.79;38.58;101011.06;4984402;28;99303;-69
2023/01/02 11:14:28;;;;;;;8.00;2.03;;;;;;;19.89;38.47;101017.50;4979856;28;99154;-70
2023/01/02 11:17:03;;;;;;;8.10;1.83;;;;;;;19.92;38.75;101005.69;4984297;28;98138;-71
2023/01/02 11:19:30;;;;;;;10.57;2.63;;;;;;;19.60;39.69;101003.44;4985802;28;96934;-70
2023/01/02 11:21:57;;;;;;;7.80;1.88;;;;;;;19.42;40.19;101002.00;4988792;28;99851;-69
2023/01/02 11:24:27;;;;;;;10.95;2.83;;;;;;;19.67;40.68;101001.19;4983346;28;98836;-70
2023/01/02 11:26:54;;;;;;;10.65;2.67;;;;;;;19.65;40.44;100997.75;4986925;28;97115;-69
2023/01/02 11:29:29;;;;;;;8.75;2.63;;;;;;;19.72;41.16;100993.69;4983211;28;97094;-70
2023/01/02 11:32:00;;;;;;;6.45;2.20;;;;;;;19.56;40.93;100993.88;4984556;28;102088;-70
2023/01/02 11:34:32;;;;;;;14.23;2.33;;;;;;;19.30;41.30;100995.63;4980391;28;101912;-70